Time;durP1;ratioP1;P1;durP2;ratioP2;P2;SDS_P1;SDS_P2;PMS_P1;PMS_P2;Temp;Humidity;BMP_temperature;BMP_pressure;BME280_temperature;BME280_humidity;BME280_pressure;Samples;Min_cycle;Max_cycle;Signal;HPM_P1;HPM_P2
2021/03/15 00:00:51;;;;;;;22.45;10.80;;;;;;;10.77;64.99;100884.52;1744131;81;21180;-46
2021/03/15 00:03:21;;;;;;;23.15;10.30;;;;;;;10.75;64.86;100875.88;1725289;83;21147;-46
2021/03/15 00:05:51;;;;;;;15.65;10.00;;;;;;;10.74;64.73;100877.22;1747352;81;21143;-46
2021/03/15 00:08:20;;;;;;;21.62;9.65;;;;;;;10.72;64.73;100870.72;1725406;83;21131;-46
2021/03/15 00:10:48;;;;;;;18.52;10.28;;;;;;;10.72;64.70;100877.66;1725560;83;21322;-47
2021/03/15 00:13:18;;;;;;;20.25;10.40;;;;;;;10.69;64.56;100868.20;1737838;82;21201;-46
2021/03/15 00:15:48;;;;;;;22.90;10.30;;;;;;;10.67;64.46;100866.07;1739915;81;21330;-46
2021/03/15 00:18:16;;;;;;;17.85;9.85;;;;;;;10.66;64.44;100863.04;1725764;83;21194;-46
2021/03/15 00:20:45;;;;;;;22.77;10.58;;;;;;;10.65;64.45;100862.64;1738519;82;21294;-46
2021/03/15 00:23:13;;;;;;;25.23;12.15;;;;;;;10.67;64.43;100863.91;1737642;82;21175;-46
2021/03/15 00:25:42;;;;;;;17.27;10.45;;;;;;;10.68;64.28;100869.07;1725417;82;21164;-46
2021/03/15 00:28:10;;;;;;;20.15;10.43;;;;;;;10.68;64.03;100861.27;1783130;80;21113;-46
2021/03/15 00:30:38;;;;;;;18.02;9.80;;;;;;;10.69;63.95;100860.39;1711661;84;21159;-46
2021/03/15 00:33:06;;;;;;;16.50;10.50;;;;;;;10.67;63.84;100859.56;1776590;80;21152;-46
2021/03/15 00:35:35;;;;;;;18.35;10.18;;;;;;;10.67;63.84;100857.40;1769184;80;21133;-46
2021/03/15 00:38:03;;;;;;;15.63;9.35;;;;;;;10.66;63.79;100847.42;1766347;80;21543;-46
2021/03/15 00:40:31;;;;;;;20.57;9.80;;;;;;;10.66;63.70;100855.23;1752875;80;21549;-46
2021/03/15 00:42:59;;;;;;;20.75;9.63;;;;;;;10.66;63.69;100846.13;1731823;82;21114;-46
2021/03/15 00:45:28;;;;;;;18.15;10.38;;;;;;;10.66;63.72;100842.22;1727571;82;21174;-46
2021/03/15 00:47:56;;;;;;;19.10;10.72;;;;;;;10.39;64.46;100842.77;1728190;81;21143;-46
2021/03/15 00:50:41;;;;;;;20.70;10.68;;;;;;;10.35;64.59;100837.21;1730066;82;21141;-46
2021/03/15 00:53:07;;;;;;;20.48;10.40;;;;;;;10.34;64.57;100835.52;1776364;80;21156;-46
2021/03/15 00:55:36;;;;;;;26.42;11.30;;;;;;;10.34;64.54;100836.81;1768739;80;21291;-46
2021/03/15 00:58:04;;;;;;;17.60;10.00;;;;;;;10.31;64.53;100831.66;1775611;80;21322;-46
2021/03/15 01:00:37;;;;;;;18.35;10.40;;;;;;;10.29;64.57;100825.62;1777991;80;21152;-46
2021/03/15 01:03:12;;;;;;;27.85;12.40;;;;;;;10.28;64.62;100818.73;1711235;84;21151;-45
2021/03/15 01:05:48;;;;;;;20.80;9.78;;;;;;;10.27;64.57;100819.17;1776028;80;21145;-45
2021/03/15 01:08:25;;;;;;;18.82;10.28;;;;;;;10.30;64.66;100810.45;1771612;79;22964;-46
2021/03/15 01:10:53;;;;;;;22.30;10.75;;;;;;;10.24;64.77;100807.51;1739371;82;21161;-46
2021/03/15 01:13:23;;;;;;;17.77;10.03;;;;;;;10.26;64.76;100807.50;1736829;82;21133;-46
2021/03/15 01:15:51;;;;;;;22.13;10.70;;;;;;;10.27;64.69;100802.70;1738632;82;21168;-46
2021/03/15 01:18:20;;;;;;;22.10;10.28;;;;;;;10.27;64.61;100797.06;1737830;82;21120;-46
2021/03/15 01:20:48;;;;;;;16.00;9.63;;;;;;;10.27;64.73;100804.00;1736938;82;21176;-46
2021/03/15 01:23:16;;;;;;;15.98;9.88;;;;;;;10.27;64.85;100802.70;1736574;82;21172;-46
2021/03/15 01:25:44;;;;;;;18.95;9.65;;;;;;;10.28;64.89;100792.73;1742841;82;21168;-46
2021/03/15 01:28:15;;;;;;;14.30;8.30;;;;;;;10.29;64.94;100790.09;1732055;82;21164;-46
2021/03/15 01:30:44;;;;;;;13.30;9.53;;;;;;;10.30;64.81;100784.02;1738815;82;21141;-46
2021/03/15 01:33:14;;;;;;;15.50;9.58;;;;;;;10.30;64.95;100775.34;1733369;82;21147;-46
2021/03/15 01:35:42;;;;;;;16.50;8.93;;;;;;;10.31;64.98;100779.64;1741078;82;21176;-46
2021/03/15 01:38:10;;;;;;;16.45;8.50;;;;;;;10.32;65.02;100773.56;1737792;81;21151;-46
2021/03/15 01:40:39;;;;;;;13.72;8.20;;;;;;;10.34;64.96;100766.59;1743151;82;21176;-46
2021/03/15 01:43:08;;;;;;;16.75;8.70;;;;;;;10.34;64.88;100767.89;1737326;82;21180;-46
2021/03/15 01:45:36;;;;;;;15.10;7.72;;;;;;;10.34;64.89;100769.19;1741215;82;21141;-46
2021/03/15 01:48:11;;;;;;;18.77;7.83;;;;;;;10.32;64.96;100764.47;1733191;82;21184;-46
2021/03/15 01:50:40;;;;;;;15.28;7.62;;;;;;;10.31;64.98;100775.30;1744495;82;21176;-46
2021/03/15 01:53:08;;;;;;;15.35;7.62;;;;;;;10.31;65.05;100764.03;1735129;82;21145;-46
2021/03/15 01:55:36;;;;;;;16.65;6.97;;;;;;;10.33;64.92;100762.26;1735625;82;21148;-46
2021/03/15 01:58:05;;;;;;;18.55;7.80;;;;;;;10.32;64.96;100763.16;1736067;82;21346;-46
2021/03/15 02:00:33;;;;;;;14.70;6.87;;;;;;;10.30;65.16;100759.73;1738497;82;21157;-46
2021/03/15 02:03:04;;;;;;;15.78;7.45;;;;;;;10.31;65.23;100761.44;1740747;82;21317;-47
2021/03/15 02:05:35;;;;;;;17.23;6.97;;;;;;;10.33;65.11;100762.26;1734663;82;21321;-46
2021/03/15 02:08:04;;;;;;;20.80;8.10;;;;;;;10.33;65.11;100768.33;1736680;82;21184;-46
2021/03/15 02:10:32;;;;;;;15.48;7.55;;;;;;;10.33;65.03;100764.42;1738876;82;21629;-46
2021/03/15 02:13:25;;;;;;;17.37;8.75;;;;;;;10.32;65.17;100765.77;1739813;82;21604;-47
2021/03/15 02:16:33;;;;;;;20.48;8.43;;;;;;;10.34;65.19;100758.79;1747614;82;21168;-46
2021/03/15 02:19:47;;;;;;;18.98;6.78;;;;;;;10.34;65.07;100760.95;1737444;82;21184;-45
2021/03/15 02:22:59;;;;;;;18.67;7.12;;;;;;;10.34;65.07;100761.39;1738512;82;21148;-45
2021/03/15 02:26:13;;;;;;;20.37;7.20;;;;;;;10.31;65.30;100753.64;1740288;82;21161;-44
2021/03/15 02:28:57;;;;;;;16.12;7.12;;;;;;;10.30;65.44;100746.73;1741435;82;21121;-46
2021/03/15 02:31:55;;;;;;;10.85;5.58;;;;;;;10.29;65.54;100752.81;1731252;82;21132;-45
2021/03/15 02:34:58;;;;;;;17.62;6.45;;;;;;;10.30;65.55;100748.03;1738347;82;21165;-45
2021/03/15 02:37:34;;;;;;;12.75;6.05;;;;;;;10.34;65.48;100746.65;1741155;82;21160;-45
2021/03/15 02:40:08;;;;;;;16.02;6.67;;;;;;;10.38;65.33;100746.13;1694316;84;21326;-44
2021/03/15 02:42:45;;;;;;;14.75;6.78;;;;;;;10.46;65.22;100745.52;1802094;79;22922;-46
2021/03/15 02:45:13;;;;;;;16.55;6.12;;;;;;;10.41;65.11;100749.95;1784370;80;21572;-46
2021/03/15 02:47:41;;;;;;;17.45;5.87;;;;;;;10.41;65.05;100749.95;1745250;81;21142;-46
2021/03/15 02:50:11;;;;;;;11.80;5.58;;;;;;;10.40;65.04;100748.25;1713438;82;21125;-46
2021/03/15 02:52:43;;;;;;;12.93;6.10;;;;;;;10.38;65.14;100742.23;1713467;83;21160;-46
2021/03/15 02:55:18;;;;;;;12.53;5.80;;;;;;;10.38;65.11;100747.43;1678793;85;21205;-46
2021/03/15 02:57:46;;;;;;;13.60;5.20;;;;;;;10.40;65.00;100748.25;1678584;85;21650;-46
2021/03/15 03:00:17;;;;;;;16.35;5.53;;;;;;;10.38;64.97;100745.69;1678618;85;21190;-45
2021/03/15 03:02:45;;;;;;;12.37;5.60;;;;;;;10.38;64.95;100747.43;1680350;85;21192;-46
2021/03/15 03:05:16;;;;;;;14.80;6.00;;;;;;;10.36;65.00;100749.20;1681754;85;21206;-46
2021/03/15 03:07:51;;;;;;;13.65;5.65;;;;;;;10.36;64.99;100744.01;1681539;85;21181;-46
2021/03/15 03:10:22;;;;;;;12.60;5.65;;;;;;;10.36;64.93;100735.77;1678526;85;21641;-46
2021/03/15 03:12:51;;;;;;;12.85;4.97;;;;;;;10.35;64.87;100730.14;1680452;85;21162;-47
2021/03/15 03:15:23;;;;;;;11.95;4.92;;;;;;;10.35;64.82;100730.58;1680708;85;21214;-46
2021/03/15 03:17:52;;;;;;;11.03;4.62;;;;;;;10.35;64.87;100735.78;1676381;85;21328;-46
2021/03/15 03:20:21;;;;;;;12.43;5.12;;;;;;;10.33;64.92;100729.75;1683730;85;21372;-46
2021/03/15 03:22:51;;;;;;;16.65;5.33;;;;;;;10.31;64.94;100728.92;1680146;85;21185;-46
2021/03/15 03:25:21;;;;;;;17.37;5.53;;;;;;;10.30;64.92;100728.53;1678849;85;21169;-46
2021/03/15 03:27:55;;;;;;;10.95;4.80;;;;;;;10.28;65.00;100720.73;1670722;85;21217;-46
2021/03/15 03:30:34;;;;;;;11.93;5.42;;;;;;;10.28;65.08;100725.11;1679228;85;21185;-46
2021/03/15 03:33:09;;;;;;;13.85;5.45;;;;;;;10.34;65.02;100724.98;1770288;79;23114;-46
2021/03/15 03:35:37;;;;;;;14.85;5.70;;;;;;;10.29;65.02;100724.20;1739980;82;21286;-46
2021/03/15 03:38:05;;;;;;;16.45;5.28;;;;;;;10.28;64.99;100719.91;1738391;82;21152;-46
2021/03/15 03:40:33;;;;;;;12.85;5.08;;;;;;;10.26;65.13;100718.61;1736985;82;21600;-46
2021/03/15 03:43:01;;;;;;;12.23;4.90;;;;;;;10.26;65.28;100713.88;1736597;82;21136;-46
2021/03/15 03:45:29;;;;;;;17.50;5.80;;;;;;;10.28;65.33;100706.91;1742575;82;21553;-46
2021/03/15 03:47:57;;;;;;;19.92;4.97;;;;;;;10.28;65.44;100709.50;1740811;82;21287;-46
2021/03/15 03:50:28;;;;;;;13.43;4.85;;;;;;;10.28;65.52;100706.91;1738254;82;21302;-46
2021/03/15 03:53:17;;;;;;;18.67;5.22;;;;;;;10.28;65.59;100702.53;1738370;82;21152;-46
2021/03/15 03:56:09;;;;;;;18.23;5.45;;;;;;;10.28;65.70;100697.80;1738366;82;21152;-46
2021/03/15 03:58:45;;;;;;;14.20;4.75;;;;;;;10.30;65.71;100692.13;1740610;82;21128;-46
2021/03/15 04:01:26;;;;;;;15.10;5.00;;;;;;;10.35;65.70;100689.83;1810098;79;23551;-46
2021/03/15 04:03:54;;;;;;;13.93;4.45;;;;;;;10.31;65.62;100697.72;1706871;84;21188;-46
2021/03/15 04:06:24;;;;;;;16.55;5.25;;;;;;;10.29;65.77;100688.66;1704952;84;21231;-46
2021/03/15 04:09:02;;;;;;;16.62;5.35;;;;;;;10.30;65.85;100689.52;1679773;84;21617;-46
2021/03/15 04:11:36;;;;;;;14.50;6.08;;;;;;;10.35;65.82;100688.95;1771555;79;23113;-46
2021/03/15 04:14:04;;;;;;;19.15;5.53;;;;;;;10.30;65.85;100690.82;1696536;82;21326;-46
2021/03/15 04:16:35;;;;;;;16.90;4.90;;;;;;;10.30;65.87;100693.42;1735264;82;21601;-46
2021/03/15 04:19:05;;;;;;;21.70;6.23;;;;;;;10.28;65.98;100688.70;1737456;82;21176;-46
2021/03/15 04:21:34;;;;;;;20.20;5.47;;;;;;;10.27;66.06;100693.04;1741915;82;21176;-46
2021/03/15 04:24:03;;;;;;;16.12;5.25;;;;;;;10.25;66.17;100697.41;1709214;82;21561;-46
2021/03/15 04:26:32;;;;;;;18.17;4.67;;;;;;;10.26;66.15;100693.08;1738590;82;21152;-46
2021/03/15 04:29:01;;;;;;;14.47;4.20;;;;;;;10.27;66.15;100694.77;1737741;82;21172;-46
2021/03/15 04:31:29;;;;;;;13.88;5.80;;;;;;;10.29;66.16;100689.09;1743568;82;21593;-46
2021/03/15 04:33:57;;;;;;;17.67;5.42;;;;;;;10.30;66.26;100689.52;1737001;82;21600;-46
2021/03/15 04:36:25;;;;;;;14.13;5.15;;;;;;;10.32;66.32;100693.81;1686693;82;21152;-46
2021/03/15 04:38:54;;;;;;;13.90;4.45;;;;;;;10.34;66.27;100698.97;1712277;82;21101;-46
2021/03/15 04:41:22;;;;;;;16.55;5.42;;;;;;;10.34;66.22;100702.43;1730576;82;21188;-46
2021/03/15 04:43:50;;;;;;;16.80;4.90;;;;;;;10.36;66.27;100701.09;1736947;82;21314;-46
2021/03/15 04:46:18;;;;;;;11.18;4.25;;;;;;;10.39;66.36;100701.01;1740520;81;21168;-46
2021/03/15 04:48:46;;;;;;;17.95;6.03;;;;;;;10.43;66.29;100696.14;1741041;81;21148;-46
2021/03/15 04:51:16;;;;;;;16.35;5.20;;;;;;;10.45;66.24;100694.37;1733114;82;21128;-46
2021/03/15 04:53:44;;;;;;;13.68;5.12;;;;;;;10.46;66.17;100696.09;1744566;82;21112;-46
2021/03/15 04:56:16;;;;;;;16.10;5.55;;;;;;;10.49;66.17;100703.81;1732541;81;21572;-46
2021/03/15 04:58:49;;;;;;;16.40;5.42;;;;;;;10.52;66.20;100693.36;1742923;82;21302;-46
2021/03/15 05:01:16;;;;;;;15.90;5.22;;;;;;;10.55;66.13;100698.03;1735765;82;21204;-46
2021/03/15 05:03:45;;;;;;;16.50;5.22;;;;;;;10.59;65.95;100697.55;1707180;82;21192;-46
2021/03/15 05:06:13;;;;;;;19.65;4.53;;;;;;;10.60;65.90;100695.34;1732891;82;21538;-46
2021/03/15 05:08:45;;;;;;;13.38;4.97;;;;;;;10.60;65.91;100697.94;1714012;82;21144;-46
2021/03/15 05:11:13;;;;;;;18.60;5.70;;;;;;;10.62;65.84;100700.06;1736701;82;21172;-46
2021/03/15 05:13:41;;;;;;;13.20;5.00;;;;;;;10.66;65.85;100699.09;1710499;82;21124;-46
2021/03/15 05:16:10;;;;;;;14.60;4.50;;;;;;;10.70;65.71;100703.34;1739622;82;21608;-46
2021/03/15 05:18:38;;;;;;;12.98;4.83;;;;;;;10.71;65.66;100702.47;1739338;82;21140;-46
2021/03/15 05:21:07;;;;;;;14.47;4.30;;;;;;;10.74;65.61;100706.75;1731592;82;21560;-46
2021/03/15 05:23:35;;;;;;;16.48;4.83;;;;;;;10.75;65.55;100704.11;1740748;82;21163;-46
2021/03/15 05:26:04;;;;;;;18.52;4.83;;;;;;;10.76;65.52;100704.50;1735100;82;21157;-46
2021/03/15 05:28:32;;;;;;;13.72;5.33;;;;;;;10.78;65.43;100705.31;1744019;82;21151;-47
2021/03/15 05:31:03;;;;;;;16.60;4.92;;;;;;;10.81;65.32;100703.95;1732321;82;21164;-46
2021/03/15 05:33:33;;;;;;;13.87;4.37;;;;;;;10.84;65.25;100707.77;1744586;82;21169;-46
2021/03/15 05:36:01;;;;;;;11.12;4.33;;;;;;;10.87;65.19;100703.81;1726060;82;21404;-46
2021/03/15 05:38:28;;;;;;;14.40;5.42;;;;;;;10.91;65.03;100701.55;1737399;82;21199;-46
2021/03/15 05:40:57;;;;;;;12.30;4.17;;;;;;;10.93;64.94;100704.97;1739802;82;21564;-46
2021/03/15 05:43:43;;;;;;;13.90;4.33;;;;;;;10.94;64.82;100705.36;1738788;82;21124;-46
2021/03/15 05:46:45;;;;;;;11.97;4.30;;;;;;;10.95;64.67;100709.69;1738829;82;21180;-46
2021/03/15 05:49:39;;;;;;;15.72;5.10;;;;;;;10.97;64.71;100706.60;1747456;82;21155;-46
2021/03/15 05:52:51;;;;;;;13.28;4.78;;;;;;;10.99;64.64;100704.81;1731053;82;21293;-44
2021/03/15 05:56:04;;;;;;;16.45;4.10;;;;;;;11.00;64.48;100707.84;1739940;82;21548;-45
2021/03/15 05:58:53;;;;;;;14.58;4.87;;;;;;;11.00;64.38;100713.05;1740088;82;21549;-45
2021/03/15 06:01:47;;;;;;;26.90;5.17;;;;;;;10.99;64.41;100710.02;1675224;84;21197;-45
2021/03/15 06:04:49;;;;;;;15.70;4.37;;;;;;;11.09;64.52;100713.25;1807972;79;22975;-46
2021/03/15 06:07:29;;;;;;;10.70;4.00;;;;;;;11.08;64.36;100713.72;1792987;80;21152;-46
2021/03/15 06:10:09;;;;;;;24.02;4.78;;;;;;;11.12;64.21;100710.58;1744057;81;21124;-46
2021/03/15 06:12:51;;;;;;;12.45;4.45;;;;;;;11.15;64.14;100710.05;1742665;81;21625;-46
2021/03/15 06:15:35;;;;;;;20.92;6.12;;;;;;;11.26;64.05;100718.47;1802118;79;22936;-46
2021/03/15 06:18:08;;;;;;;17.17;5.67;;;;;;;11.27;63.92;100720.16;1705586;83;21181;-46
2021/03/15 06:20:38;;;;;;;17.42;5.35;;;;;;;11.31;63.75;100725.70;1707315;84;21240;-46
2021/03/15 06:23:06;;;;;;;18.32;4.80;;;;;;;11.36;63.46;100723.85;1747786;82;21163;-46
2021/03/15 06:25:35;;;;;;;15.83;4.62;;;;;;;11.43;63.34;100729.77;1690672;85;21168;-46
2021/03/15 06:28:04;;;;;;;13.28;4.53;;;;;;;11.45;63.18;100728.84;1709026;84;21182;-46
2021/03/15 06:30:32;;;;;;;13.20;4.80;;;;;;;11.50;62.98;100730.47;1676765;85;21172;-46
2021/03/15 06:33:01;;;;;;;11.73;4.15;;;;;;;11.53;62.89;100726.47;1715580;83;21164;-46
2021/03/15 06:35:32;;;;;;;21.82;5.20;;;;;;;11.54;62.86;100722.98;1672835;85;21228;-46
2021/03/15 06:38:00;;;;;;;15.75;4.83;;;;;;;11.54;62.81;100725.59;1693835;84;21224;-46
2021/03/15 06:40:28;;;;;;;15.15;3.80;;;;;;;11.55;62.88;100725.54;1676056;85;21192;-46
2021/03/15 06:42:57;;;;;;;11.30;3.35;;;;;;;11.58;62.96;100728.52;1695019;83;21180;-46
2021/03/15 06:45:26;;;;;;;16.23;4.65;;;;;;;11.61;63.00;100732.33;1707186;84;21628;-46
2021/03/15 06:47:53;;;;;;;18.20;5.17;;;;;;;11.64;62.89;100734.88;1719313;83;21750;-46
2021/03/15 06:50:22;;;;;;;13.55;4.15;;;;;;;11.67;62.89;100725.69;1676428;85;21154;-46
2021/03/15 06:52:56;;;;;;;10.60;3.70;;;;;;;11.69;62.83;100725.19;1707177;84;21247;-46
2021/03/15 06:55:40;;;;;;;13.35;4.20;;;;;;;11.71;62.92;100724.27;1714844;81;21326;-46
2021/03/15 06:58:28;;;;;;;17.02;4.85;;;;;;;11.74;62.88;100729.85;1713574;83;21172;-46
2021/03/15 07:01:22;;;;;;;17.65;4.62;;;;;;;11.76;62.90;100730.22;1713443;83;21144;-46
2021/03/15 07:04:08;;;;;;;16.17;3.98;;;;;;;11.81;62.71;100733.55;1718942;83;21129;-46
2021/03/15 07:06:42;;;;;;;13.88;4.22;;;;;;;11.86;62.62;100734.29;1743543;81;21165;-46
2021/03/15 07:09:15;;;;;;;15.65;4.97;;;;;;;11.91;62.58;100734.17;1713430;83;21180;-46
2021/03/15 07:11:43;;;;;;;12.78;4.72;;;;;;;11.96;62.51;100733.58;1662325;85;21658;-46
2021/03/15 07:14:25;;;;;;;13.15;4.28;;;;;;;12.03;62.41;100736.44;1648007;85;21181;-46
2021/03/15 07:17:02;;;;;;;;;;;;;;;12.09;62.24;100733.66;1634833;87;21589;-46
2021/03/15 07:19:30;;;;;;;9.60;3.90;;;;;;;12.12;62.01;100725.28;1630120;87;20274;-46
2021/03/15 07:21:58;;;;;;;19.62;5.35;;;;;;;12.15;61.98;100729.56;1632443;87;21192;-46
2021/03/15 07:24:30;;;;;;;17.50;4.62;;;;;;;12.19;61.87;100722.05;1632416;87;21197;-46
2021/03/15 07:26:58;;;;;;;13.40;4.87;;;;;;;12.23;61.82;100718.46;1681608;84;21227;-46
2021/03/15 07:29:28;;;;;;;19.20;5.35;;;;;;;12.28;61.52;100721.33;1681513;84;21552;-46
2021/03/15 07:31:56;;;;;;;15.43;5.05;;;;;;;12.31;61.31;100719.09;1681658;84;21213;-46
2021/03/15 07:34:25;;;;;;;12.93;3.98;;;;;;;12.32;61.24;100719.95;1675762;84;21157;-46
2021/03/15 07:36:55;;;;;;;15.63;5.08;;;;;;;12.32;61.29;100726.03;1681616;84;21690;-46
2021/03/15 07:39:27;;;;;;;18.77;4.80;;;;;;;12.32;61.22;100718.20;1682037;85;21173;-46
2021/03/15 07:41:57;;;;;;;13.03;4.50;;;;;;;12.30;61.26;100720.00;1681750;84;21581;-46
2021/03/15 07:44:32;;;;;;;17.52;4.90;;;;;;;12.32;61.25;100721.25;1681472;84;21192;-46
2021/03/15 07:47:03;;;;;;;14.25;4.22;;;;;;;12.34;61.17;100719.45;1681441;84;21357;-46
2021/03/15 07:49:39;;;;;;;17.98;4.33;;;;;;;12.34;61.15;100715.09;1681772;84;21161;-46
2021/03/15 07:52:11;;;;;;;14.23;4.90;;;;;;;12.34;61.15;100713.80;1681383;84;21339;-46
2021/03/15 07:54:42;;;;;;;17.82;4.83;;;;;;;12.32;61.31;100715.59;1681426;84;21270;-46
2021/03/15 07:57:23;;;;;;;14.25;5.97;;;;;;;12.39;61.22;100706.67;1807853;79;22391;-46
2021/03/15 07:59:53;;;;;;;14.85;4.78;;;;;;;12.35;61.12;100705.05;1779008;80;21568;-46
2021/03/15 08:02:24;;;;;;;17.57;4.60;;;;;;;12.36;61.16;100709.39;1772029;80;21179;-46
2021/03/15 08:04:53;;;;;;;16.20;4.97;;;;;;;12.40;61.13;100709.70;1739067;81;21183;-46
2021/03/15 08:07:22;;;;;;;11.80;4.87;;;;;;;12.45;61.14;100709.09;1737793;82;21140;-46
2021/03/15 08:12:36;;;;;;;15.38;4.33;;;;;;;12.60;61.01;100704.72;1801204;79;22848;-46
2021/03/15 08:15:12;;;;;;;20.17;5.50;;;;;;;12.56;61.03;100707.02;1723338;82;21211;-46
2021/03/15 08:17:46;;;;;;;17.15;4.35;;;;;;;12.56;61.04;100707.02;1727421;82;21251;-46
2021/03/15 08:20:19;;;;;;;16.17;4.58;;;;;;;12.66;60.82;100701.92;1769830;79;22165;-46
2021/03/15 08:22:52;;;;;;;14.18;5.00;;;;;;;12.66;60.64;100703.67;1739830;82;21176;-46
2021/03/15 08:25:19;;;;;;;16.52;4.95;;;;;;;12.66;60.40;100695.39;1691300;83;21168;-46
2021/03/15 08:27:47;;;;;;;16.30;4.42;;;;;;;12.63;60.43;100702.00;1704016;83;21176;-46
2021/03/15 08:30:22;;;;;;;16.10;4.40;;;;;;;12.63;60.30;100692.03;1703756;83;21141;-46
2021/03/15 08:32:50;;;;;;;15.18;4.45;;;;;;;12.64;60.33;100699.81;1704048;83;21133;-46
2021/03/15 08:35:19;;;;;;;13.48;3.83;;;;;;;12.65;60.48;100703.28;1677933;83;21330;-46
2021/03/15 08:38:04;;;;;;;14.18;4.20;;;;;;;12.66;60.36;100695.39;1707163;83;21176;-46
2021/03/15 08:40:47;;;;;;;12.25;4.60;;;;;;;12.72;60.48;100699.12;1696646;83;21225;-46
2021/03/15 08:43:25;;;;;;;14.03;4.35;;;;;;;12.77;60.36;100698.53;1698440;83;21581;-46
2021/03/15 08:46:03;;;;;;;19.73;4.17;;;;;;;12.84;60.09;100699.17;1700746;83;21231;-46
2021/03/15 08:48:41;;;;;;;12.10;4.20;;;;;;;12.89;59.93;100694.23;1701042;83;21148;-46
2021/03/15 08:51:13;;;;;;;16.50;5.25;;;;;;;12.93;59.75;100697.14;1700736;83;21175;-46
2021/03/15 08:53:48;;;;;;;13.40;4.28;;;;;;;12.94;59.61;100697.52;1700858;83;21322;-46
2021/03/15 08:56:25;;;;;;;10.75;3.80;;;;;;;12.96;59.72;100697.02;1705618;83;21663;-46
2021/03/15 08:58:55;;;;;;;12.10;4.45;;;;;;;13.01;59.97;100697.74;1697400;83;21160;-46
2021/03/15 09:01:28;;;;;;;16.62;4.33;;;;;;;13.10;59.71;100694.46;1702815;83;21168;-46
2021/03/15 09:04:01;;;;;;;16.85;3.83;;;;;;;13.16;59.61;100695.56;1703727;83;21223;-46
2021/03/15 09:06:38;;;;;;;13.75;4.30;;;;;;;13.21;59.20;100696.28;1703779;83;21183;-46
2021/03/15 09:09:28;;;;;;;15.70;4.47;;;;;;;13.26;59.00;100696.52;1703620;83;21133;-46
2021/03/15 09:12:00;;;;;;;12.13;3.95;;;;;;;13.32;58.83;100692.83;1703939;83;21260;-46
2021/03/15 09:14:30;;;;;;;;;;;;;;;13.40;58.58;100696.03;1706744;83;21180;-46
2021/03/15 09:17:19;;;;;;;12.20;4.05;;;;;;;13.46;58.56;100694.52;1720317;83;20267;-46
2021/03/15 09:19:49;;;;;;;20.17;4.25;;;;;;;13.52;58.38;100687.32;1686817;83;21142;-46
2021/03/15 09:25:06;;;;;;;9.83;4.00;;;;;;;13.61;57.86;100688.77;1807684;79;21266;-46
2021/03/15 09:27:43;;;;;;;15.32;3.75;;;;;;;13.54;57.71;100695.14;1772173;80;21139;-46
2021/03/15 09:30:28;;;;;;;17.32;4.30;;;;;;;13.49;57.48;100690.50;1711062;83;21162;-46
2021/03/15 09:32:57;;;;;;;15.25;4.08;;;;;;;13.42;57.47;100689.86;1713184;83;21143;-46
2021/03/15 09:35:40;;;;;;;13.35;4.22;;;;;;;13.33;57.75;100691.50;1708169;83;21602;-46
2021/03/15 09:38:11;;;;;;;17.12;4.58;;;;;;;13.27;57.86;100682.53;1711770;83;21182;-46
2021/03/15 09:40:49;;;;;;;20.32;4.42;;;;;;;13.25;57.82;100687.43;1813175;79;22680;-45
2021/03/15 09:43:23;;;;;;;17.27;4.03;;;;;;;13.18;57.82;100685.91;1770795;80;21556;-45
2021/03/15 09:45:58;;;;;;;19.95;6.53;;;;;;;13.17;57.77;100682.91;1805753;79;22981;-46
2021/03/15 09:48:29;;;;;;;15.50;5.27;;;;;;;13.08;57.94;100679.29;1780572;80;21309;-46
2021/03/15 09:51:05;;;;;;;14.20;3.83;;;;;;;13.04;57.85;100674.15;1781130;80;21160;-46
2021/03/15 09:53:44;;;;;;;14.10;4.75;;;;;;;13.01;58.00;100671.63;1769684;79;23092;-46
2021/03/15 09:56:13;;;;;;;12.13;4.40;;;;;;;12.93;58.17;100671.02;1741330;82;21113;-46
2021/03/15 09:58:53;;;;;;;15.32;4.12;;;;;;;12.94;58.42;100670.58;1771712;79;23385;-46
2021/03/15 10:01:23;;;;;;;16.00;3.90;;;;;;;12.88;58.39;100668.17;1740097;81;21541;-46
2021/03/15 10:04:04;;;;;;;11.12;3.45;;;;;;;12.83;58.42;100665.70;1739048;82;21140;-46
2021/03/15 10:06:34;;;;;;;14.00;3.72;;;;;;;12.81;58.48;100668.81;1734605;82;21129;-46
2021/03/15 10:09:22;;;;;;;11.85;3.72;;;;;;;12.82;58.61;100665.28;1738830;82;21156;-46
2021/03/15 10:11:54;;;;;;;16.60;5.45;;;;;;;12.79;58.97;100658.88;1733600;82;21109;-46
2021/03/15 10:14:42;;;;;;;13.70;4.50;;;;;;;12.78;58.93;100655.84;1728190;82;21184;-46
2021/03/15 10:17:27;;;;;;;10.75;3.92;;;;;;;12.83;58.79;100651.34;1771666;79;23070;-46
2021/03/15 10:19:57;;;;;;;15.88;4.83;;;;;;;12.79;58.93;100651.48;1728156;82;21132;-46
2021/03/15 10:22:26;;;;;;;14.30;3.77;;;;;;;12.78;58.95;100648.00;1741880;82;21180;-46
2021/03/15 10:24:55;;;;;;;15.78;4.12;;;;;;;12.78;59.06;100640.17;1732891;82;21153;-46
2021/03/15 10:27:28;;;;;;;15.70;5.00;;;;;;;12.76;59.15;100634.15;1737829;82;21592;-46
2021/03/15 10:30:09;;;;;;;12.73;3.92;;;;;;;12.74;59.17;100628.13;1740771;82;21168;-46
2021/03/15 10:32:41;;;;;;;15.15;3.98;;;;;;;12.71;59.19;100624.33;1736163;82;21576;-46
2021/03/15 10:35:12;;;;;;;9.10;3.58;;;;;;;12.68;59.29;100623.10;1742432;82;21190;-46
2021/03/15 10:37:51;;;;;;;16.70;4.28;;;;;;;12.68;59.47;100617.02;1771802;79;22967;-46
2021/03/15 10:40:25;;;;;;;15.15;4.15;;;;;;;12.62;59.55;100612.86;1740385;82;21302;-46
2021/03/15 10:42:54;;;;;;;14.63;3.75;;;;;;;12.61;59.69;100608.53;1738753;82;21184;-46
2021/03/15 10:45:27;;;;;;;18.77;3.92;;;;;;;12.62;59.53;100604.17;1720169;82;21155;-46
2021/03/15 10:48:05;;;;;;;11.30;3.42;;;;;;;12.62;59.45;100605.03;1733770;82;21584;-46
2021/03/15 10:50:42;;;;;;;13.28;4.45;;;;;;;12.63;59.41;100601.50;1655607;85;21182;-46
2021/03/15 10:53:22;;;;;;;16.73;3.72;;;;;;;12.67;59.37;100603.14;1655469;86;21171;-46
2021/03/15 10:55:51;;;;;;;16.10;3.75;;;;;;;12.73;59.15;100596.85;1658832;86;21182;-46
2021/03/15 10:58:23;;;;;;;12.75;4.33;;;;;;;12.74;58.91;100591.57;1641446;86;21223;-46
2021/03/15 11:01:02;;;;;;;15.05;3.98;;;;;;;12.79;58.86;100589.67;1810258;79;22856;-46
2021/03/15 11:03:32;;;;;;;15.08;3.98;;;;;;;12.70;58.92;100586.05;1771615;80;21128;-46
2021/03/15 11:06:16;;;;;;;13.95;3.92;;;;;;;12.67;59.02;100590.09;1771628;80;21164;-46
2021/03/15 11:08:56;;;;;;;14.40;4.37;;;;;;;12.67;59.11;100597.92;1776893;80;21124;-45
2021/03/15 11:11:26;;;;;;;14.75;4.15;;;;;;;12.70;59.06;100592.58;1753816;80;21132;-45
2021/03/15 11:13:58;;;;;;;18.90;4.60;;;;;;;12.73;59.00;100592.49;1766713;80;21108;-45
2021/03/15 11:16:30;;;;;;;14.15;4.33;;;;;;;12.76;58.82;100589.77;1770436;80;21452;-45
2021/03/15 11:19:12;;;;;;;12.85;3.95;;;;;;;12.77;58.56;100586.27;1779777;80;21580;-45
2021/03/15 11:21:44;;;;;;;17.12;4.42;;;;;;;12.74;58.57;100588.96;1776480;80;21168;-45
2021/03/15 11:24:18;;;;;;;13.08;4.28;;;;;;;12.70;58.61;100579.53;1772608;80;21275;-45
2021/03/15 11:26:56;;;;;;;16.32;4.10;;;;;;;12.72;58.67;100579.47;1810056;79;22836;-46
2021/03/15 11:29:38;;;;;;;14.98;4.35;;;;;;;12.66;58.71;100568.78;1677638;84;21739;-46
2021/03/15 11:32:14;;;;;;;18.37;4.67;;;;;;;12.67;58.78;100560.06;1771397;79;22672;-46
2021/03/15 11:34:50;;;;;;;18.62;4.42;;;;;;;12.62;58.87;100559.34;1734631;82;21286;-46
2021/03/15 11:37:27;;;;;;;21.33;5.25;;;;;;;12.61;58.94;100559.41;1736924;82;21168;-46
2021/03/15 11:39:56;;;;;;;23.73;5.28;;;;;;;12.58;58.95;100553.83;1728306;82;21580;-46
2021/03/15 11:42:30;;;;;;;14.80;4.60;;;;;;;12.52;58.95;100552.73;1734472;82;21580;-46
2021/03/15 11:45:02;;;;;;;11.78;4.40;;;;;;;12.47;59.05;100552.48;1712533;82;21565;-46
2021/03/15 11:47:30;;;;;;;12.45;4.17;;;;;;;12.41;59.15;100550.91;1744499;82;21330;-46
2021/03/15 11:50:00;;;;;;;14.05;4.85;;;;;;;12.32;59.30;100546.00;1735350;82;21144;-46
2021/03/15 11:52:32;;;;;;;13.75;4.75;;;;;;;12.26;59.40;100550.94;1734861;82;21557;-46